Vremea acum in Alba Iulia - Romania

Vrei sa afli care e starea vremii acum in Alba - Romania? Dorim sa iti furnizam starea vremii pentru Alba - Romania. Starea vremii Alba - Romania pentru astazi.

Vremea acum in Alba Iulia

Temperatura: 18 °C

Este: Patchy rain nearby
Se simte ca: 18 °C
Innorat: 82 %
Precipitatii: 67 %
Presiune atmosferica: 1016 hPa
Umiditate: 64%
Vizibilitate: 10 km
Vantul bate din S cu 3.6 km/h

Evolutia vremii in Alba Iulia pe ore

Ora: 13:00
Patchy rain nearby
Temperatura: 20.6°C
Sansa de precipitatii: 67%
Ora Descriere Temp Se simte Precipitatii Umiditate Vant
00:008.7°0%90%WSW 5 KM/H
01:00Senin8.7°8.2°0%90%WSW 5.4 KM/H
02:00Senin8.3°7.6°0%90%WSW 5.8 KM/H
03:00Senin7.6°7.8°0%90%WSW 3.2 KM/H
04:00Senin7.3°7.4°0%90%WNW 3.2 KM/H
05:00Senin6.9°0%90%W 3.2 KM/H
06:00Senin6.7°6.4°0%90%WSW 4 KM/H
07:00Senin7.7°7.4°0%89%WSW 4.3 KM/H
08:00Senin12.1°12.7°0%84%WSW 3.2 KM/H
09:00Senin14°14.9°0%79%SW 3.2 KM/H
10:00Senin16°16°0%72%SSW 3.2 KM/H
11:00Patchy rain nearby18°18°65%64%S 3.6 KM/H
12:00Patchy rain nearby19.5°19.5°83%57%SSE 3.6 KM/H
13:00Patchy rain nearby20.6°20.6°67%51%SE 6.1 KM/H
14:00Patchy rain nearby21°21.1°100%48%SSE 7.6 KM/H
15:00Patchy rain nearby21.3°21.3°100%47%SSE 6.5 KM/H
16:00Patchy rain nearby21.6°21.6°100%47%ESE 4 KM/H
17:00Patchy rain nearby21.2°21.2°100%49%ENE 4.7 KM/H
18:00Patchy rain nearby20.8°20.8°67%53%ENE 5.8 KM/H
19:00Patchy rain nearby19°19°73%64%ENE 5.8 KM/H
20:00Senin15.5°15.5°0%68%NE 5.4 KM/H
21:0013.8°14.1°0%70%NE 5 KM/H
22:00Senin12.9°12.9°0%73%NE 5.8 KM/H
23:00Senin11.6°11.6°0%78%NNE 4.7 KM/H




tutorials